Página principal
METAR-TAF:

METAR-TAF

Aeroportos :

Aeroporto de Vigo

Vigo, Espanha

latitude: 42-13N, longitude: 008-38W, altura: 264 m

Observação actual do tempo

O boletim foi feito há 18 minutos, às 11:00 UTC
Vento 3 kt de sul
Temperatura 30°C
Humidade 33%
Pressão 1020 hPa
Visibilidade 10 km ou mais
sem nuvens abaixo de 1500 metros e sem cumulonimbus

METAR: LEVX 191100Z 17003KT CAVOK 30/12 Q1020 NOSIG

Hora: 13:18 (11:18 UTC)

Previsão

O boletim foi feito há 6 horas e 18 minutos, às 05:00 UTC
Previsão válida de 19 às 06 UTC a 20 às 06 UTC
Vento 5 kt de su-sudoeste
Visibilidade 10 km ou mais
sem nuvens abaixo de 1500 metros e sem cumulonimbus
Tornando-se
de 19 às 10 UTC a 19 às 12 UTC
Vento 10 kt de es-nordeste

TAF: LEVX 190500Z 1906/2006 20005KT CAVOK TX34/1914Z TN17/1906Z BECMG 1910/1912 06010KT

Observações e previsões do tempo de mais de 4000 aeroportos (mensagens METAR e TAF).

As estações disponíveis são os pontos amarelos e vermelhos sobre o mapa.

Mova o rato sobre o mapa para ver o nome da estação.

Depois clique no ponto para visualizar as observações e previsões meteorológicas.

Para alterar o mapa : clique nos botões verdes com uma cruz preta para aumentar o zoom; no botão verde com uma pitada de zoom; ou nas setas verdes para mapas adjacentes.


METAR-TAF: